Time;durP1;ratioP1;P1;durP2;ratioP2;P2;SDS_P1;SDS_P2;PMS_P1;PMS_P2;Temp;Humidity;BMP_temperature;BMP_pressure;BME280_temperature;BME280_humidity;BME280_pressure;Samples;Min_cycle;Max_cycle;Signal;HPM_P1;HPM_P2
2022/09/14 00:00:06;;;;;;;8.52;2.58;;;19.60;99.90;;;;;;5129480;28;20043;-85
2022/09/14 00:02:35;;;;;;;4.32;2.60;;;19.60;99.90;;;;;;5129349;28;20565;-86
2022/09/14 00:05:01;;;;;;;2.20;2.00;;;19.60;99.90;;;;;;5127959;28;20039;-85
2022/09/14 00:07:26;;;;;;;4.45;1.90;;;19.60;99.90;;;;;;5129616;28;20057;-85
2022/09/14 00:09:52;;;;;;;8.15;2.22;;;19.60;99.90;;;;;;5110440;28;20036;-85
2022/09/14 00:12:18;;;;;;;3.05;2.25;;;19.50;99.90;;;;;;5128739;28;20027;-85
2022/09/14 00:14:45;;;;;;;6.47;2.33;;;19.50;99.90;;;;;;5127756;28;20028;-85
2022/09/14 00:17:11;;;;;;;4.97;2.13;;;19.50;99.90;;;;;;5128807;28;20026;-85
2022/09/14 00:19:36;;;;;;;4.10;2.50;;;19.50;99.90;;;;;;5129277;28;20028;-85
2022/09/14 00:22:05;;;;;;;6.43;2.53;;;19.50;99.90;;;;;;5127616;28;20052;-85
2022/09/14 00:24:31;;;;;;;5.13;2.40;;;19.50;99.90;;;;;;5128886;28;20135;-85
2022/09/14 00:26:57;;;;;;;4.22;2.50;;;19.50;99.90;;;;;;5110905;28;20063;-85
2022/09/14 00:29:23;;;;;;;7.72;2.33;;;19.50;99.90;;;;;;5127755;28;20027;-85
2022/09/14 00:31:49;;;;;;;7.03;2.38;;;19.50;99.90;;;;;;5110222;28;20026;-85
2022/09/14 00:34:16;;;;;;;4.68;2.25;;;19.40;99.90;;;;;;5110515;28;20048;-85
2022/09/14 00:36:46;;;;;;;2.25;2.15;;;19.50;99.90;;;;;;5127368;28;20520;-85
2022/09/14 00:39:12;;;;;;;3.47;2.28;;;19.40;99.90;;;;;;5127387;28;20028;-85
2022/09/14 00:41:41;;;;;;;4.25;2.28;;;19.40;99.90;;;;;;5128877;28;20098;-85
2022/09/14 00:44:26;;;;;;;9.38;4.00;;;19.40;99.90;;;;;;5127529;28;20057;-86
2022/09/14 00:46:55;;;;;;;5.28;2.22;;;19.40;99.90;;;;;;5127060;28;20034;-85
2022/09/14 00:49:34;;;;;;;5.53;3.05;;;19.40;99.90;;;;;;5110170;28;20120;-85
2022/09/14 00:52:09;;;;;;;3.40;2.53;;;19.40;99.90;;;;;;5127173;28;20047;-86
2022/09/14 00:54:40;;;;;;;9.02;2.88;;;19.40;99.90;;;;;;5128342;27;20031;-85
2022/09/14 00:57:06;;;;;;;1.45;1.35;;;19.30;99.90;;;;;;5128527;28;20095;-86
2022/09/14 00:59:35;;;;;;;5.95;2.45;;;19.30;99.90;;;;;;5109912;28;20473;-85
2022/09/14 01:02:02;;;;;;;5.30;3.00;;;19.30;99.90;;;;;;5128061;28;20037;-85
2022/09/14 01:04:28;;;;;;;2.03;1.83;;;19.30;99.90;;;;;;5126985;28;20038;-85
2022/09/14 01:07:16;;;;;;;2.22;1.65;;;19.30;99.90;;;;;;5093199;28;20027;-86
2022/09/14 01:10:11;;;;;;;3.65;2.10;;;19.30;99.90;;;;;;5126576;28;20032;-85
2022/09/14 01:12:48;;;;;;;4.60;2.55;;;19.30;99.90;;;;;;5127041;28;20038;-85
2022/09/14 01:15:33;;;;;;;6.82;2.03;;;19.30;99.90;;;;;;5109702;28;20032;-85
2022/09/14 01:18:13;;;;;;;6.32;4.00;;;19.20;99.90;;;;;;5109274;28;20027;-85
2022/09/14 01:20:43;;;;;;;5.60;2.97;;;19.30;99.90;;;;;;5126570;28;20043;-85
2022/09/14 01:23:27;;;;;;;2.95;2.03;;;19.20;99.90;;;;;;5127370;28;20049;-85
2022/09/14 01:26:04;;;;;;;4.35;2.03;;;19.30;99.90;;;;;;5126273;28;20400;-86
2022/09/14 01:28:53;;;;;;;3.55;1.90;;;19.20;99.90;;;;;;5127112;28;20490;-84
2022/09/14 01:31:39;;;;;;;4.82;2.30;;;19.20;99.90;;;;;;5127678;28;20047;-85
2022/09/14 01:34:19;;;;;;;6.13;3.05;;;19.20;99.90;;;;;;5126272;28;20038;-85
2022/09/14 01:36:50;;;;;;;2.67;2.57;;;19.20;99.90;;;;;;5109260;28;20118;-86
2022/09/14 01:39:20;;;;;;;3.80;2.00;;;19.20;99.90;;;;;;5126516;28;20284;-85
2022/09/14 01:41:49;;;;;;;14.00;2.20;;;19.20;99.90;;;;;;5127231;28;20059;-85
2022/09/14 01:44:26;;;;;;;6.93;3.03;;;19.10;99.90;;;;;;5126211;28;20084;-85
2022/09/14 01:47:00;;;;;;;2.33;2.15;;;19.20;99.90;;;;;;5127288;28;20035;-85
2022/09/14 01:49:36;;;;;;;3.13;2.40;;;19.10;99.90;;;;;;5127555;28;20147;-85
2022/09/14 01:52:11;;;;;;;1.50;1.40;;;19.10;99.90;;;;;;5126186;28;20024;-86
2022/09/14 01:54:59;;;;;;;4.78;2.17;;;19.10;99.90;;;;;;5125887;28;20031;-85
2022/09/14 01:57:43;;;;;;;4.45;1.85;;;19.10;99.90;;;;;;5124906;28;20050;-86
2022/09/14 02:00:15;;;;;;;2.50;2.00;;;19.10;99.90;;;;;;5125969;28;20054;-86
2022/09/14 02:03:00;;;;;;;11.02;2.22;;;19.10;99.90;;;;;;5125717;28;20060;-85
2022/09/14 02:05:58;;;;;;;4.68;3.08;;;19.10;99.90;;;;;;5108808;28;20038;-86
2022/09/14 02:08:27;;;;;;;5.03;1.88;;;19.10;99.90;;;;;;5104769;28;20036;-85
2022/09/14 02:10:53;;;;;;;3.75;2.17;;;19.10;99.90;;;;;;5118232;28;20038;-85
2022/09/14 02:13:19;;;;;;;2.67;2.00;;;19.10;99.90;;;;;;5125850;28;20026;-85
2022/09/14 02:15:45;;;;;;;5.45;1.77;;;19.00;99.90;;;;;;5125845;28;20103;-86
2022/09/14 02:18:11;;;;;;;10.02;3.17;;;19.00;99.90;;;;;;5126749;28;20034;-85
2022/09/14 02:20:46;;;;;;;4.68;2.90;;;19.00;99.90;;;;;;5125663;28;20023;-86
2022/09/14 02:23:12;;;;;;;9.05;2.63;;;19.00;99.90;;;;;;5126657;28;20054;-85
2022/09/14 02:25:39;;;;;;;4.97;2.10;;;19.00;99.90;;;;;;5108306;28;20040;-85
2022/09/14 02:28:06;;;;;;;2.30;2.08;;;19.00;99.90;;;;;;5125292;28;20061;-85
2022/09/14 02:30:48;;;;;;;6.07;2.40;;;19.00;99.90;;;;;;5125571;28;20042;-85
2022/09/14 02:33:33;;;;;;;11.38;3.55;;;19.00;99.90;;;;;;5124860;28;20059;-85
2022/09/14 02:36:06;;;;;;;4.68;2.95;;;19.00;99.90;;;;;;5125268;28;20035;-85
2022/09/14 02:38:41;;;;;;;6.03;2.40;;;19.00;99.90;;;;;;5125310;28;20015;-85
2022/09/14 02:41:22;;;;;;;5.07;2.65;;;18.90;99.90;;;;;;5125047;28;20016;-85
2022/09/14 02:43:52;;;;;;;7.55;2.33;;;18.90;99.90;;;;;;5125047;28;20034;-85
2022/09/14 02:46:32;;;;;;;5.10;2.53;;;18.90;99.90;;;;;;5126555;28;20110;-85
2022/09/14 02:49:11;;;;;;;5.00;3.10;;;18.90;99.90;;;;;;5125485;28;20087;-85
2022/09/14 02:52:04;;;;;;;3.67;1.50;;;18.90;99.90;;;;;;5125495;28;20053;-85
2022/09/14 02:54:42;;;;;;;7.57;2.63;;;18.90;99.90;;;;;;5126553;28;20047;-84
2022/09/14 02:57:08;;;;;;;11.63;3.03;;;18.80;99.90;;;;;;5125079;28;20455;-85
2022/09/14 02:59:34;;;;;;;2.90;2.67;;;18.80;99.90;;;;;;5124983;28;20015;-85
2022/09/14 03:02:00;;;;;;;4.15;2.55;;;18.80;99.90;;;;;;5125029;28;20034;-85
2022/09/14 03:04:27;;;;;;;8.25;2.70;;;18.80;99.90;;;;;;5126511;28;20038;-85
2022/09/14 03:06:53;;;;;;;6.45;2.63;;;18.80;99.90;;;;;;5107972;28;20077;-85
2022/09/14 03:09:19;;;;;;;3.28;2.03;;;18.80;99.90;;;;;;5141931;28;20089;-84
2022/09/14 03:11:44;;;;;;;5.78;3.17;;;18.80;99.90;;;;;;5126096;28;20066;-85
2022/09/14 03:14:11;;;;;;;4.43;2.70;;;18.80;99.90;;;;;;5124912;28;20406;-85
2022/09/14 03:16:37;;;;;;;5.78;3.35;;;18.80;99.90;;;;;;5107828;28;20048;-85
2022/09/14 03:19:04;;;;;;;6.50;4.20;;;18.70;99.90;;;;;;5125075;28;20027;-85
2022/09/14 03:21:31;;;;;;;5.72;3.42;;;18.80;99.90;;;;;;5124933;28;20502;-84
2022/09/14 03:23:57;;;;;;;10.40;3.22;;;18.70;99.90;;;;;;5124844;28;20448;-85
2022/09/14 03:26:24;;;;;;;6.35;2.80;;;18.70;99.90;;;;;;5104214;28;20031;-85
2022/09/14 03:28:59;;;;;;;5.85;3.35;;;18.70;99.90;;;;;;5104560;28;20028;-85
2022/09/14 03:31:25;;;;;;;5.30;2.15;;;18.70;99.90;;;;;;5087653;28;20028;-85
2022/09/14 03:33:56;;;;;;;16.08;3.45;;;18.70;99.90;;;;;;5105738;28;20044;-85
2022/09/14 03:36:24;;;;;;;5.45;2.85;;;18.70;99.90;;;;;;5105555;28;20027;-85
2022/09/14 03:38:52;;;;;;;4.75;2.67;;;18.70;99.90;;;;;;5121538;28;20026;-84
2022/09/14 03:41:19;;;;;;;3.55;2.60;;;18.60;99.90;;;;;;5121741;28;20026;-85
2022/09/14 03:43:45;;;;;;;14.95;4.03;;;18.60;99.90;;;;;;5124703;28;20024;-84
2022/09/14 03:46:13;;;;;;;2.95;2.22;;;18.60;99.90;;;;;;5127558;28;20059;-85
2022/09/14 03:48:39;;;;;;;5.38;2.33;;;18.60;99.90;;;;;;5128580;28;20035;-85
2022/09/14 03:51:07;;;;;;;5.53;3.35;;;18.60;99.90;;;;;;5128548;28;20027;-85
2022/09/14 03:53:34;;;;;;;2.65;2.45;;;18.60;99.90;;;;;;5128423;28;20019;-85
2022/09/14 03:55:59;;;;;;;7.03;2.85;;;18.60;99.90;;;;;;5128251;28;20040;-85
2022/09/14 03:58:29;;;;;;;2.25;1.90;;;18.60;99.90;;;;;;5127978;28;20055;-85
2022/09/14 04:00:56;;;;;;;4.32;1.92;;;18.60;99.90;;;;;;5129508;28;20030;-85
2022/09/14 04:03:22;;;;;;;6.20;2.63;;;18.50;99.90;;;;;;5128334;28;20023;-85
2022/09/14 04:05:55;;;;;;;2.53;1.80;;;18.50;99.90;;;;;;5128536;28;20039;-85
2022/09/14 04:08:22;;;;;;;8.45;3.42;;;18.50;99.90;;;;;;5128044;28;20039;-85
2022/09/14 04:10:48;;;;;;;7.30;2.88;;;18.50;99.90;;;;;;5107346;28;20028;-85
2022/09/14 04:13:14;;;;;;;1.75;1.65;;;18.50;99.90;;;;;;5109174;28;20032;-85
2022/09/14 04:15:40;;;;;;;6.72;3.40;;;18.50;99.90;;;;;;5124602;28;20092;-85
2022/09/14 04:18:06;;;;;;;6.28;2.75;;;18.50;99.90;;;;;;5124457;28;20020;-85
2022/09/14 04:20:32;;;;;;;4.78;2.17;;;18.40;99.90;;;;;;5108974;28;20028;-85
2022/09/14 04:22:58;;;;;;;8.32;3.65;;;18.40;99.90;;;;;;5108485;28;20043;-85
2022/09/14 04:25:24;;;;;;;5.13;2.30;;;18.50;99.90;;;;;;5119770;28;20028;-85
2022/09/14 04:27:50;;;;;;;4.35;2.72;;;18.40;99.90;;;;;;5127872;28;20115;-84
2022/09/14 04:30:16;;;;;;;10.55;3.42;;;18.40;99.90;;;;;;5110620;28;20492;-85
2022/09/14 04:32:43;;;;;;;7.22;1.90;;;18.40;99.90;;;;;;5128860;28;20042;-85
2022/09/14 04:35:09;;;;;;;9.45;3.33;;;18.40;99.90;;;;;;5129443;28;20024;-86
2022/09/14 04:37:34;;;;;;;5.63;2.58;;;18.40;99.90;;;;;;5127578;28;20087;-85
2022/09/14 04:40:01;;;;;;;8.55;2.42;;;18.30;99.90;;;;;;5107113;28;20034;-85
2022/09/14 04:42:28;;;;;;;8.60;3.22;;;18.20;99.90;;;;;;5107273;28;20036;-85
2022/09/14 04:44:54;;;;;;;3.95;2.03;;;18.30;99.90;;;;;;5113664;28;20046;-85
2022/09/14 04:47:20;;;;;;;8.77;2.75;;;18.30;99.90;;;;;;5116424;27;20044;-85
2022/09/14 04:49:46;;;;;;;6.50;2.70;;;18.30;99.90;;;;;;5124617;27;20032;-85
2022/09/14 04:52:11;;;;;;;2.63;2.05;;;18.30;99.90;;;;;;5137799;27;20035;-85
2022/09/14 04:54:37;;;;;;;8.57;2.35;;;;;;;;;;5113888;28;20032;-85
2022/09/14 04:57:03;;;;;;;5.07;2.25;;;18.30;99.90;;;;;;5131697;27;20027;-85
2022/09/14 04:59:29;;;;;;;4.65;1.83;;;18.60;99.90;;;;;;5093229;28;20032;-85
2022/09/14 05:01:55;;;;;;;6.00;2.45;;;18.30;99.90;;;;;;5098703;28;20039;-85
2022/09/14 05:04:21;;;;;;;7.60;2.83;;;18.20;99.90;;;;;;5120062;28;20091;-85
2022/09/14 05:06:48;;;;;;;7.07;2.72;;;18.20;99.90;;;;;;5093110;28;20027;-86
2022/09/14 05:09:17;;;;;;;5.22;2.90;;;18.20;99.90;;;;;;5113489;28;20028;-86
2022/09/14 05:11:43;;;;;;;6.35;2.35;;;;;;;;;;5126990;28;20478;-86
2022/09/14 05:14:12;;;;;;;10.88;3.53;;;18.20;99.90;;;;;;5109424;28;20500;-86
2022/09/14 05:16:39;;;;;;;3.00;2.10;;;18.20;99.90;;;;;;5106170;28;20023;-86
2022/09/14 05:19:08;;;;;;;9.88;3.05;;;18.20;99.90;;;;;;5105648;28;20032;-86
2022/09/14 05:21:35;;;;;;;4.22;2.28;;;18.20;99.90;;;;;;5122146;28;20081;-86
2022/09/14 05:24:04;;;;;;;6.47;2.67;;;18.10;99.90;;;;;;5107258;28;20103;-86
2022/09/14 05:26:31;;;;;;;6.55;1.77;;;18.10;99.90;;;;;;5122763;28;21781;-85
2022/09/14 05:28:59;;;;;;;4.80;1.92;;;18.10;99.90;;;;;;5126251;28;20032;-86
2022/09/14 05:31:26;;;;;;;7.45;2.45;;;18.10;99.90;;;;;;5125782;28;20031;-86
2022/09/14 05:33:52;;;;;;;7.57;4.05;;;18.10;99.90;;;;;;5108126;28;20039;-88
2022/09/14 05:36:18;;;;;;;3.38;2.03;;;18.10;99.90;;;;;;5109209;28;20015;-87
2022/09/14 05:38:44;;;;;;;5.22;2.97;;;18.00;99.90;;;;;;5127148;28;20023;-86
2022/09/14 05:41:13;;;;;;;3.83;1.88;;;18.00;99.90;;;;;;5126091;28;20080;-86
2022/09/14 05:43:39;;;;;;;7.82;2.60;;;18.00;99.90;;;;;;5108930;27;20031;-86
2022/09/14 05:46:09;;;;;;;5.35;2.25;;;18.00;99.90;;;;;;5126873;28;20028;-85
2022/09/14 05:48:36;;;;;;;4.18;1.98;;;18.00;99.90;;;;;;5125805;28;20027;-86
2022/09/14 05:51:14;;;;;;;3.42;1.95;;;18.00;99.90;;;;;;5103579;28;20024;-86
2022/09/14 05:53:40;;;;;;;4.95;2.42;;;18.00;99.90;;;;;;5124073;28;20036;-85
2022/09/14 05:56:09;;;;;;;3.45;2.58;;;18.00;99.90;;;;;;5108538;28;20031;-85
2022/09/14 05:58:36;;;;;;;4.15;2.17;;;18.00;99.90;;;;;;5125455;28;20685;-85
2022/09/14 06:01:14;;;;;;;6.75;2.47;;;18.00;99.90;;;;;;5117934;28;20024;-84
2022/09/14 06:03:40;;;;;;;6.10;2.25;;;18.00;99.90;;;;;;5122798;27;20031;-85
2022/09/14 06:06:08;;;;;;;3.40;1.83;;;18.00;99.90;;;;;;5126375;27;20015;-84
2022/09/14 06:08:35;;;;;;;6.35;2.25;;;;;;;;;;5120682;28;20031;-85
2022/09/14 06:11:06;;;;;;;2.05;1.63;;;17.90;99.90;;;;;;5089238;28;20043;-84
2022/09/14 06:13:33;;;;;;;4.25;1.52;;;;;;;;;;5119333;28;20466;-85
2022/09/14 06:16:04;;;;;;;2.53;1.25;;;17.90;99.90;;;;;;5105211;28;20069;-84
2022/09/14 06:18:34;;;;;;;8.27;2.40;;;17.90;99.90;;;;;;5101202;28;20024;-85
2022/09/14 06:21:00;;;;;;;5.05;2.10;;;;;;;;;;5123511;28;20023;-84
2022/09/14 06:23:27;;;;;;;3.10;2.13;;;17.90;99.90;;;;;;5125282;27;20057;-84
2022/09/14 06:25:55;;;;;;;3.28;1.95;;;17.90;99.90;;;;;;5123291;28;20039;-84
2022/09/14 06:28:22;;;;;;;5.95;2.38;;;17.90;99.90;;;;;;5120105;28;20023;-84
2022/09/14 06:30:48;;;;;;;3.15;2.63;;;17.80;99.90;;;;;;5100933;28;20058;-84
2022/09/14 06:33:15;;;;;;;5.03;2.13;;;17.80;99.90;;;;;;5078324;28;20093;-84
2022/09/14 06:35:41;;;;;;;1.10;1.05;;;17.80;99.90;;;;;;5108826;28;20043;-84
2022/09/14 06:38:07;;;;;;;3.25;1.00;;;;;;;;;;5106702;28;20023;-84
2022/09/14 06:40:33;;;;;;;2.30;1.20;;;17.80;99.90;;;;;;5125773;27;20024;-85
2022/09/14 06:43:01;;;;;;;1.92;1.08;;;17.80;99.90;;;;;;5125910;28;20083;-84
2022/09/14 06:45:31;;;;;;;3.95;1.60;;;17.80;99.90;;;;;;5130082;28;20053;-85
2022/09/14 06:47:57;;;;;;;3.70;1.65;;;;;;;;;;5091132;28;20095;-85
2022/09/14 06:50:24;;;;;;;6.50;1.88;;;17.80;99.90;;;;;;5124879;28;20028;-84
2022/09/14 06:52:50;;;;;;;8.27;2.30;;;17.70;99.90;;;;;;5124612;28;20154;-84
2022/09/14 06:55:16;;;;;;;4.10;1.95;;;17.80;99.90;;;;;;5124569;28;20043;-84
2022/09/14 06:57:42;;;;;;;5.78;2.50;;;;;;;;;;5124457;28;20105;-85
2022/09/14 07:00:09;;;;;;;4.07;2.17;;;17.80;99.90;;;;;;5109019;28;20035;-87
2022/09/14 07:02:34;;;;;;;1.30;1.20;;;17.70;99.90;;;;;;5126984;28;20109;-86
2022/09/14 07:05:02;;;;;;;11.05;3.17;;;17.70;99.90;;;;;;5127131;28;20035;-87
2022/09/14 07:07:28;;;;;;;3.70;1.80;;;17.70;99.90;;;;;;5125752;28;20112;-87
2022/09/14 07:09:54;;;;;;;3.13;1.77;;;17.70;99.90;;;;;;5126775;28;20032;-87
2022/09/14 07:12:19;;;;;;;2.78;1.83;;;17.70;99.90;;;;;;5127272;28;20053;-87
2022/09/14 07:14:45;;;;;;;2.42;1.92;;;17.70;99.90;;;;;;5126633;28;20020;-87
2022/09/14 07:17:13;;;;;;;3.67;2.15;;;17.70;99.90;;;;;;5125551;28;20543;-87
2022/09/14 07:19:45;;;;;;;7.47;3.03;;;17.70;99.90;;;;;;5122976;28;20023;-86
2022/09/14 07:22:10;;;;;;;3.80;1.85;;;17.70;99.90;;;;;;5130096;28;20085;-87
2022/09/14 07:24:36;;;;;;;2.55;1.40;;;17.70;99.90;;;;;;5129570;28;20052;-86
2022/09/14 07:27:02;;;;;;;2.35;1.98;;;17.70;99.90;;;;;;5131056;28;20053;-87
2022/09/14 07:29:28;;;;;;;6.50;2.58;;;17.60;99.90;;;;;;5112310;28;20098;-87
2022/09/14 07:31:54;;;;;;;1.98;1.55;;;17.60;99.90;;;;;;5129496;28;20027;-87
2022/09/14 07:34:20;;;;;;;6.75;2.50;;;17.60;99.90;;;;;;5129214;28;20055;-87
2022/09/14 07:36:46;;;;;;;4.18;2.40;;;17.60;99.90;;;;;;5129561;28;20099;-86
2022/09/14 07:39:15;;;;;;;10.32;2.25;;;17.60;99.90;;;;;;5108382;28;20020;-87
2022/09/14 07:41:42;;;;;;;2.40;1.77;;;17.60;99.90;;;;;;5125681;28;20032;-86
2022/09/14 07:44:11;;;;;;;3.10;2.40;;;17.60;99.90;;;;;;5108249;28;20095;-86
2022/09/14 07:46:40;;;;;;;2.42;2.22;;;17.60;99.90;;;;;;5109954;28;20016;-87
2022/09/14 07:49:07;;;;;;;3.20;2.53;;;17.60;99.90;;;;;;5128574;28;20032;-86
2022/09/14 07:51:35;;;;;;;1.88;1.77;;;17.60;99.90;;;;;;5130271;27;20051;-87
2022/09/14 07:54:01;;;;;;;3.03;2.78;;;17.60;99.90;;;;;;5130440;28;20042;-87
2022/09/14 07:56:28;;;;;;;8.48;3.05;;;17.60;99.90;;;;;;5130118;28;20035;-86
2022/09/14 07:58:56;;;;;;;3.35;3.00;;;17.60;99.90;;;;;;5128806;28;20030;-86
2022/09/14 08:01:23;;;;;;;4.03;3.05;;;17.60;99.90;;;;;;5130071;27;20111;-87
2022/09/14 08:03:49;;;;;;;3.67;3.33;;;17.60;99.90;;;;;;5130124;28;20032;-87
2022/09/14 08:06:24;;;;;;;2.97;2.78;;;17.50;99.90;;;;;;5129094;28;20035;-86
2022/09/14 08:08:52;;;;;;;3.15;2.90;;;17.60;99.90;;;;;;5129656;28;20061;-87
2022/09/14 08:11:23;;;;;;;4.70;3.55;;;17.60;99.90;;;;;;5129493;28;20087;-86
2022/09/14 08:13:54;;;;;;;4.60;4.28;;;17.60;99.90;;;;;;5129311;28;20066;-86
2022/09/14 08:16:20;;;;;;;;;;;17.60;99.90;;;;;;5130176;28;20412;-87
2022/09/14 08:18:46;;;;;;;3.47;3.28;;;17.60;99.90;;;;;;5128638;28;19904;-87
2022/09/14 08:21:14;;;;;;;4.85;4.30;;;17.60;99.90;;;;;;5128132;28;20027;-86
2022/09/14 08:23:41;;;;;;;6.15;3.17;;;17.60;99.90;;;;;;5127841;28;20071;-86
2022/09/14 08:26:08;;;;;;;7.65;4.72;;;17.60;99.90;;;;;;5129999;28;20039;-86
2022/09/14 08:28:35;;;;;;;4.90;3.65;;;17.60;99.90;;;;;;5129556;28;20036;-86
2022/09/14 08:31:06;;;;;;;5.15;4.63;;;17.60;99.90;;;;;;5129037;28;20024;-87
2022/09/14 08:33:38;;;;;;;5.35;4.85;;;17.50;99.90;;;;;;5128534;28;20030;-87
2022/09/14 08:36:07;;;;;;;3.55;3.25;;;17.60;99.90;;;;;;5128689;28;20035;-87
2022/09/14 08:38:32;;;;;;;4.50;4.10;;;17.60;99.90;;;;;;5127186;28;20377;-86
2022/09/14 08:41:08;;;;;;;5.00;3.70;;;17.50;99.90;;;;;;5129110;28;20039;-87
2022/09/14 08:43:34;;;;;;;5.60;3.88;;;17.60;99.90;;;;;;5129123;28;20096;-86
2022/09/14 08:46:04;;;;;;;8.18;3.83;;;17.60;99.90;;;;;;5127650;28;20434;-87
2022/09/14 08:48:34;;;;;;;5.15;3.53;;;17.60;99.90;;;;;;5127786;28;20028;-86
2022/09/14 08:51:01;;;;;;;4.53;3.13;;;17.60;99.90;;;;;;5129028;28;20027;-87
2022/09/14 08:53:27;;;;;;;4.65;3.05;;;17.60;99.90;;;;;;5127879;28;20040;-86
2022/09/14 08:56:00;;;;;;;6.82;4.18;;;17.60;99.90;;;;;;5128469;28;20016;-87
2022/09/14 08:58:53;;;;;;;3.90;3.42;;;17.50;99.90;;;;;;5127693;28;20110;-87
2022/09/14 09:01:32;;;;;;;6.40;3.55;;;17.50;99.90;;;;;;5128791;28;20066;-86
2022/09/14 09:04:29;;;;;;;3.67;2.42;;;17.50;99.90;;;;;;5127621;28;20027;-87
2022/09/14 09:07:16;;;;;;;5.55;2.47;;;17.50;99.90;;;;;;5128291;28;20389;-87
2022/09/14 09:09:47;;;;;;;7.93;1.63;;;17.50;99.90;;;;;;5128110;28;20500;-87
2022/09/14 09:12:22;;;;;;;2.15;1.95;;;17.50;99.90;;;;;;5126496;28;20027;-86
2022/09/14 09:14:55;;;;;;;4.38;1.25;;;17.50;99.90;;;;;;5127739;28;20036;-86
2022/09/14 09:17:44;;;;;;;2.28;1.73;;;17.50;99.90;;;;;;5126907;28;20039;-87
2022/09/14 09:20:22;;;;;;;5.20;2.35;;;17.50;99.90;;;;;;5106514;28;20063;-87
2022/09/14 09:22:57;;;;;;;2.38;2.17;;;17.50;99.90;;;;;;5117621;28;20078;-86
2022/09/14 09:25:28;;;;;;;1.85;1.70;;;17.50;99.90;;;;;;5127219;28;20066;-87
2022/09/14 09:28:01;;;;;;;5.07;1.92;;;17.50;99.90;;;;;;5126913;28;20047;-86
2022/09/14 09:30:28;;;;;;;5.53;1.77;;;17.50;99.90;;;;;;5127570;28;20371;-87
2022/09/14 09:32:55;;;;;;;1.30;1.30;;;17.50;99.90;;;;;;5127830;27;20024;-87
2022/09/14 09:35:52;;;;;;;4.22;1.05;;;17.40;99.90;;;;;;5117849;28;20035;-87
2022/09/14 09:38:27;;;;;;;2.03;1.52;;;17.50;99.90;;;;;;5126617;28;20016;-87
2022/09/14 09:41:00;;;;;;;2.20;1.40;;;17.50;99.90;;;;;;5126746;28;20020;-86
2022/09/14 09:43:26;;;;;;;2.70;1.00;;;17.40;99.90;;;;;;5109610;28;20023;-86
2022/09/14 09:45:54;;;;;;;1.30;0.95;;;17.40;99.90;;;;;;5126592;28;20116;-87
2022/09/14 09:48:29;;;;;;;2.60;1.52;;;17.40;99.90;;;;;;5126300;28;20087;-86
2022/09/14 09:51:03;;;;;;;0.95;0.85;;;17.40;99.90;;;;;;5127378;28;20062;-87
2022/09/14 09:53:31;;;;;;;1.58;1.42;;;17.40;99.90;;;;;;5118966;28;20039;-87
2022/09/14 09:55:57;;;;;;;1.13;0.95;;;17.40;99.90;;;;;;5126268;28;20045;-86
2022/09/14 09:58:27;;;;;;;1.88;1.20;;;17.40;99.90;;;;;;5108528;28;20020;-87
2022/09/14 10:01:16;;;;;;;6.45;1.13;;;17.40;99.90;;;;;;5127084;28;20039;-86
2022/09/14 10:03:42;;;;;;;3.00;2.05;;;17.30;99.90;;;;;;5126240;28;20438;-87
2022/09/14 10:06:11;;;;;;;1.33;1.05;;;17.30;99.90;;;;;;5105726;28;20043;-87
2022/09/14 10:08:44;;;;;;;3.33;0.60;;;17.30;99.90;;;;;;5106920;28;20036;-87
2022/09/14 10:11:29;;;;;;;1.40;1.02;;;17.30;99.90;;;;;;5123218;28;20024;-87
2022/09/14 10:13:56;;;;;;;2.95;0.68;;;17.30;99.90;;;;;;5125348;28;20028;-86
2022/09/14 10:16:23;;;;;;;2.67;1.38;;;17.30;99.90;;;;;;5107579;28;20087;-87
2022/09/14 10:24:28;;;;;;;3.35;1.40;;;;;;;;;;5197324;23;20049;-86
2022/09/14 10:26:53;;;;;;;2.25;2.05;;;17.20;99.90;;;;;;5014452;28;20026;-87
2022/09/14 10:29:29;;;;;;;7.22;1.75;;;17.20;99.90;;;;;;5047421;28;20377;-86
2022/09/14 10:32:00;;;;;;;1.58;1.48;;;17.20;99.90;;;;;;5038934;28;20029;-86
2022/09/14 10:34:26;;;;;;;1.35;1.13;;;17.20;99.90;;;;;;5027555;28;20026;-86
2022/09/14 10:37:23;;;;;;;3.83;1.50;;;17.20;99.90;;;;;;5026969;28;20026;-86
2022/09/14 10:40:15;;;;;;;1.05;0.90;;;17.20;99.90;;;;;;5033018;28;20472;-86
2022/09/14 10:43:03;;;;;;;0.80;0.80;;;17.20;99.90;;;;;;5027390;28;20025;-86
2022/09/14 10:45:38;;;;;;;1.92;1.40;;;17.20;99.90;;;;;;5025398;28;20035;-85
2022/09/14 10:48:59;;;;;;;1.25;1.23;;;17.20;99.90;;;;;;5030923;28;20030;-86
2022/09/14 10:51:25;;;;;;;1.33;1.23;;;17.20;99.90;;;;;;4998575;28;20048;-86
2022/09/14 10:54:04;;;;;;;1.30;0.98;;;17.10;99.90;;;;;;5036499;28;20034;-87
2022/09/14 10:57:17;;;;;;;0.70;0.70;;;17.20;99.90;;;;;;5046060;28;20029;-87
2022/09/14 10:59:57;;;;;;;1.38;1.00;;;17.20;99.90;;;;;;4983581;28;20038;-87
2022/09/14 11:02:23;;;;;;;;;;;17.20;99.90;;;;;;4958270;28;20517;-87
2022/09/14 11:05:11;;;;;;;1.35;1.23;;;17.10;99.90;;;;;;5027922;28;19964;-86
2022/09/14 11:07:40;;;;;;;2.17;1.00;;;17.10;99.90;;;;;;5050417;28;20034;-87
2022/09/14 11:10:18;;;;;;;3.58;1.70;;;17.10;99.90;;;;;;5047697;28;20052;-86
2022/09/14 11:12:46;;;;;;;2.17;1.55;;;17.10;99.90;;;;;;5031935;28;20112;-86
2022/09/14 11:15:34;;;;;;;1.95;1.85;;;17.10;99.90;;;;;;5039392;28;20040;-86
2022/09/14 11:18:20;;;;;;;1.30;1.20;;;17.10;99.90;;;;;;5030930;28;20392;-87
2022/09/14 11:20:54;;;;;;;1.27;1.00;;;17.20;99.90;;;;;;5015797;28;20064;-86
2022/09/14 11:23:43;;;;;;;6.10;2.28;;;17.20;99.90;;;;;;5039224;28;20042;-87
2022/09/14 11:26:30;;;;;;;3.53;1.40;;;17.10;99.90;;;;;;5019772;28;20495;-86
2022/09/14 11:29:22;;;;;;;2.03;1.92;;;17.10;99.90;;;;;;5048166;28;20536;-86
2022/09/14 11:31:53;;;;;;;3.58;1.65;;;17.10;99.90;;;;;;5030286;28;20033;-87
2022/09/14 11:34:41;;;;;;;4.35;2.25;;;17.10;99.90;;;;;;5045372;28;20029;-87
2022/09/14 11:37:39;;;;;;;1.45;1.35;;;17.10;99.90;;;;;;5022413;28;20037;-86
2022/09/14 11:40:23;;;;;;;2.22;2.10;;;17.10;99.90;;;;;;5035520;28;20038;-86
2022/09/14 11:43:10;;;;;;;9.48;2.38;;;17.10;99.90;;;;;;5041265;28;20021;-87
2022/09/14 11:45:45;;;;;;;3.72;2.60;;;17.10;99.90;;;;;;5033329;28;20087;-87
2022/09/14 11:48:36;;;;;;;13.10;2.80;;;17.10;99.90;;;;;;5043641;28;20034;-87
2022/09/14 11:51:11;;;;;;;3.78;1.58;;;17.10;99.90;;;;;;5050696;28;20040;-86
2022/09/14 11:53:39;;;;;;;5.90;2.88;;;17.10;99.90;;;;;;5032759;28;20036;-87
2022/09/14 11:56:04;;;;;;;3.58;2.17;;;17.00;99.90;;;;;;5046492;28;20101;-87
2022/09/14 11:58:30;;;;;;;2.28;1.85;;;17.10;99.90;;;;;;5030991;28;20045;-86
2022/09/14 12:01:01;;;;;;;9.40;3.03;;;17.10;99.90;;;;;;5049846;28;20022;-87
2022/09/14 12:04:00;;;;;;;3.75;3.13;;;17.10;99.90;;;;;;5048183;28;20088;-86
2022/09/14 12:06:29;;;;;;;3.43;2.67;;;17.10;99.90;;;;;;5042439;28;20026;-86
2022/09/14 12:09:19;;;;;;;3.50;2.55;;;17.10;99.90;;;;;;5044470;28;20068;-86
2022/09/14 12:11:51;;;;;;;3.20;3.00;;;17.10;99.90;;;;;;5028238;28;20025;-86
2022/09/14 12:14:25;;;;;;;4.43;3.13;;;17.10;99.90;;;;;;5045319;28;20021;-86
2022/09/14 12:17:25;;;;;;;4.55;2.78;;;17.10;99.90;;;;;;5038957;28;20030;-86
2022/09/14 12:19:56;;;;;;;5.25;2.90;;;17.00;99.90;;;;;;5038907;28;20025;-85
2022/09/14 12:22:33;;;;;;;4.68;3.95;;;17.10;99.90;;;;;;5048274;28;20026;-86
2022/09/14 12:25:15;;;;;;;3.38;2.92;;;17.10;99.90;;;;;;5036832;28;20049;-87
2022/09/14 12:27:42;;;;;;;3.40;2.55;;;17.10;99.90;;;;;;5043795;28;20041;-86
2022/09/14 12:30:39;;;;;;;4.72;4.32;;;17.10;99.90;;;;;;5047662;28;20064;-87
2022/09/14 12:33:31;;;;;;;8.52;4.47;;;17.10;99.90;;;;;;5046751;28;20085;-87
2022/09/14 12:36:18;;;;;;;2.95;2.47;;;17.10;99.90;;;;;;5028928;28;20447;-87
2022/09/14 12:38:51;;;;;;;3.80;3.47;;;17.10;99.90;;;;;;5040808;28;20030;-86
2022/09/14 12:41:17;;;;;;;3.80;3.50;;;17.10;99.90;;;;;;5049251;28;20113;-87
2022/09/14 12:43:52;;;;;;;3.80;3.47;;;17.10;99.90;;;;;;5043291;28;20030;-87
2022/09/14 12:46:20;;;;;;;4.32;3.92;;;17.10;99.90;;;;;;5034978;28;20026;-87
2022/09/14 12:54:02;;;;;;;5.45;4.15;;;17.10;99.90;;;;;;5045403;28;20038;-87
2022/09/14 12:56:38;;;;;;;4.00;3.67;;;17.20;99.90;;;;;;5034914;28;20025;-87
2022/09/14 12:59:19;;;;;;;4.95;4.32;;;17.10;99.90;;;;;;5039488;28;20030;-87
2022/09/14 13:02:14;;;;;;;3.85;2.38;;;17.10;99.90;;;;;;5027243;28;20026;-87
2022/09/14 13:04:41;;;;;;;3.65;3.22;;;17.10;99.90;;;;;;5012272;28;20045;-87
2022/09/14 13:07:17;;;;;;;7.22;4.10;;;17.10;99.90;;;;;;5046829;28;20029;-87
2022/09/14 13:09:49;;;;;;;3.83;3.53;;;17.10;99.90;;;;;;5030300;28;20105;-87
2022/09/14 13:12:30;;;;;;;2.95;2.65;;;17.10;99.90;;;;;;5047088;28;20392;-86
2022/09/14 13:15:03;;;;;;;2.97;2.78;;;17.10;99.90;;;;;;5046641;28;20034;-87
2022/09/14 13:17:29;;;;;;;3.30;2.55;;;17.10;99.90;;;;;;5046393;28;20030;-88
2022/09/14 13:20:04;;;;;;;3.97;2.67;;;17.10;99.90;;;;;;5046431;28;20036;-87
2022/09/14 13:22:31;;;;;;;3.35;3.08;;;17.10;99.90;;;;;;5047885;28;20033;-87
2022/09/14 13:25:00;;;;;;;4.38;3.63;;;17.10;99.90;;;;;;5047749;28;20054;-87